Time;durP1;ratioP1;P1;durP2;ratioP2;P2;SDS_P1;SDS_P2;PMS_P1;PMS_P2;Temp;Humidity;BMP_temperature;BMP_pressure;BME280_temperature;BME280_humidity;BME280_pressure;Samples;Min_cycle;Max_cycle;Signal;HPM_P1;HPM_P2
2022/11/17 00:04:06;;;;;;;6.33;4.73;;;;;;;3.31;100.00;100042.53;5154754;55;1138828;-81
2022/11/17 00:09:16;;;;;;;9.53;6.10;;;;;;;3.34;100.00;100026.69;5064330;56;1136892;-81
2022/11/17 00:14:35;;;;;;;10.55;6.05;;;;;;;3.35;100.00;100028.84;5056878;55;1136579;-81
2022/11/17 00:25:05;;;;;;;8.40;5.90;;;;;;;3.34;100.00;100025.84;5060874;56;1136739;-83
2022/11/17 00:34:03;;;;;;;7.13;5.23;;;;;;;3.30;100.00;100021.25;5113416;56;1136763;-81
2022/11/17 00:35:18;;;;;;;11.40;6.10;;;;;;;3.30;100.00;100006.87;5134987;56;1136549;-83
2022/11/17 00:40:25;;;;;;;7.97;6.07;;;;;;;3.28;100.00;100011.34;5142983;55;1138855;-82
2022/11/17 00:45:31;;;;;;;9.07;5.07;;;;;;;3.33;100.00;100016.31;5141993;55;1136956;-81
2022/11/17 00:50:37;;;;;;;5.92;5.05;;;;;;;3.33;100.00;100013.23;5139915;56;1136808;-79
2022/11/17 00:55:44;;;;;;;5.00;4.50;;;;;;;3.30;100.00;100006.87;5136952;56;1136814;-82
2022/11/17 01:00:51;;;;;;;7.58;5.60;;;;;;;3.31;100.00;100012.94;5140850;56;1136718;-82
2022/11/17 01:06:07;;;;;;;10.37;6.57;;;;;;;3.33;100.00;100013.23;5110564;56;1136824;-81
2022/11/17 01:11:19;;;;;;;6.60;5.80;;;;;;;3.35;100.00;100011.85;5072312;56;1139103;-82
2022/11/17 01:16:26;;;;;;;7.20;6.20;;;;;;;3.37;100.00;100003.43;5060361;56;1136777;-80
2022/11/17 01:21:32;;;;;;;7.43;6.67;;;;;;;3.35;100.00;100009.23;5136396;55;1136838;-81
2022/11/17 01:26:39;;;;;;;8.23;6.10;;;;;;;3.35;100.00;100015.77;5156127;55;1136879;-81
2022/11/17 01:31:50;;;;;;;8.26;5.58;;;;;;;3.34;100.00;100011.47;5220862;54;1136666;-81
2022/11/17 01:42:23;;;;;;;5.83;5.20;;;;;;;3.29;100.00;100006.95;5115616;56;1136921;-80
2022/11/17 01:47:52;;;;;;;5.87;5.23;;;;;;;3.27;100.00;100004.42;5158199;55;1137216;-83
2022/11/17 01:53:02;;;;;;;6.47;5.85;;;;;;;3.26;100.00;100004.50;5201747;55;1136671;-82
2022/11/17 01:58:12;;;;;;;6.27;5.67;;;;;;;3.23;100.00;100000.75;5201583;55;1136921;-83
2022/11/17 02:03:18;;;;;;;6.33;5.67;;;;;;;3.22;100.00;100001.67;5201515;55;1136693;-81
2022/11/17 02:08:28;;;;;;;7.47;6.10;;;;;;;3.15;100.00;100001.19;5054345;55;1136817;-83
2022/11/17 02:13:35;;;;;;;7.30;6.53;;;;;;;3.21;100.00;99998.72;5051506;56;1136853;-81
2022/11/17 02:18:43;;;;;;;6.73;6.03;;;;;;;3.21;100.00;99994.30;5012945;55;1134754;-82
2022/11/17 02:24:22;;;;;;;6.63;5.93;;;;;;;3.21;100.00;99994.30;5026576;54;1134740;-82
2022/11/17 02:29:41;;;;;;;7.78;6.80;;;;;;;3.21;100.00;99994.80;5060236;55;1134689;-81
2022/11/17 02:35:25;;;;;;;5.70;4.53;;;;;;;3.18;100.00;99995.80;5073855;54;1134651;-81
2022/11/17 02:40:34;;;;;;;13.07;7.07;;;;;;;3.17;100.00;99983.66;5110636;56;1134674;-82
2022/11/17 02:45:50;;;;;;;10.63;7.77;;;;;;;3.15;100.00;99988.13;5067379;55;1136678;-82
2022/11/17 02:50:58;;;;;;;10.93;6.57;;;;;;;3.15;100.00;99977.67;5091485;55;1136659;-82
2022/11/17 02:56:03;;;;;;;9.17;7.03;;;;;;;3.14;100.00;99980.75;5093417;55;1136813;-81
2022/11/17 03:01:28;;;;;;;8.03;6.97;;;;;;;3.12;100.00;99989.13;5146613;54;1134630;-82
2022/11/17 03:06:47;;;;;;;9.73;6.80;;;;;;;3.10;100.00;99976.61;5122177;56;1134749;-82
2022/11/17 03:12:09;;;;;;;6.07;5.57;;;;;;;3.07;100.00;99984.61;5156362;56;1135011;-83
2022/11/17 03:17:22;;;;;;;16.63;7.70;;;;;;;3.07;100.00;99985.92;5195522;55;1134799;-83
2022/11/17 03:22:43;;;;;;;8.50;6.83;;;;;;;3.03;100.00;99994.88;5155022;55;1136906;-83
2022/11/17 03:27:53;;;;;;;11.27;6.57;;;;;;;3.01;100.00;99981.52;5155902;55;1134608;-82
2022/11/17 03:33:04;;;;;;;11.38;6.45;;;;;;;2.99;100.00;99975.06;5155017;55;1136983;-82
2022/11/17 03:38:13;;;;;;;6.47;5.87;;;;;;;2.97;100.00;99979.99;5110943;56;1136876;-80
2022/11/17 03:43:20;;;;;;;6.30;5.40;;;;;;;2.98;100.00;99985.59;5119873;55;1134611;-81
2022/11/17 03:48:48;;;;;;;10.07;6.97;;;;;;;2.95;100.00;99980.07;5197248;55;1134859;-81
2022/11/17 03:53:55;;;;;;;7.62;6.03;;;;;;;2.91;100.00;99977.70;5197167;55;1136992;-81
2022/11/17 03:59:08;;;;;;;7.97;7.00;;;;;;;2.90;100.00;99974.74;5197244;55;1134624;-83
2022/11/17 04:04:17;;;;;;;6.15;5.55;;;;;;;2.81;100.00;99973.45;5178718;55;1134892;-83
2022/11/17 04:09:24;;;;;;;6.17;5.53;;;;;;;2.80;100.00;99978.30;5043258;56;1134661;-82
2022/11/17 04:19:52;;;;;;;7.17;6.42;;;;;;;2.70;100.00;99983.19;5144393;55;1134574;-82
2022/11/17 04:24:58;;;;;;;8.38;5.72;;;;;;;2.67;100.00;99979.89;5035232;56;1134578;-81
2022/11/17 04:30:05;;;;;;;7.97;6.25;;;;;;;2.64;100.00;99983.96;5123256;55;1134568;-83
2022/11/17 04:35:10;;;;;;;8.63;6.83;;;;;;;2.57;100.00;99976.94;5109771;55;1134689;-83
2022/11/17 04:40:16;;;;;;;6.30;5.60;;;;;;;2.53;100.00;99984.55;5174308;54;1134933;-79
2022/11/17 04:45:22;;;;;;;6.55;5.90;;;;;;;2.55;100.00;99979.25;4988713;56;1134757;-78
2022/11/17 04:50:29;;;;;;;8.27;6.63;;;;;;;2.53;100.00;99981.09;5140696;55;1134677;-79
2022/11/17 04:55:35;;;;;;;9.87;6.27;;;;;;;2.50;100.00;99976.88;5139903;55;1134781;-79
2022/11/17 05:00:41;;;;;;;8.37;6.10;;;;;;;2.45;100.00;99970.58;5134009;55;1134630;-80
2022/11/17 05:05:48;;;;;;;8.90;6.13;;;;;;;2.47;100.00;99974.41;5176279;54;1134550;-79
2022/11/17 05:17:12;;;;;;;7.27;6.10;;;;;;;2.44;100.00;99978.03;5112415;55;1134875;-81
2022/11/17 05:21:26;;;;;;;9.80;8.08;;;;;;;2.43;100.00;99976.83;5133139;55;1134594;-80
2022/11/17 05:26:35;;;;;;;10.72;8.23;;;;;;;2.43;100.00;99967.70;5121654;56;1134671;-81
2022/11/17 05:31:40;;;;;;;9.23;7.27;;;;;;;2.44;100.00;99975.41;5188928;54;1136827;-81
2022/11/17 05:36:46;;;;;;;14.67;6.87;;;;;;;2.43;100.00;99978.98;5206827;54;1134664;-81
2022/11/17 05:41:52;;;;;;;9.00;7.30;;;;;;;2.44;100.00;99981.94;5173178;54;1136809;-77
2022/11/17 05:46:57;;;;;;;9.30;7.75;;;;;;;2.45;100.00;99986.23;5145455;54;1134811;-69
2022/11/17 05:52:04;;;;;;;9.13;7.23;;;;;;;2.47;100.00;99985.70;5146676;55;1134613;-68
2022/11/17 05:57:15;;;;;;;11.67;8.63;;;;;;;2.46;100.00;99978.80;5140338;55;1134685;-66
2022/11/17 06:02:31;;;;;;;10.87;7.63;;;;;;;2.47;100.00;99977.03;5202060;55;1136714;-68
2022/11/17 06:07:38;;;;;;;9.53;8.23;;;;;;;2.46;100.00;99978.80;5175537;54;1136680;-68
2022/11/17 06:12:44;;;;;;;12.43;8.37;;;;;;;2.45;100.00;99972.34;5126885;54;1134857;-68
2022/11/17 06:17:59;;;;;;;13.73;9.17;;;;;;;2.39;100.00;99974.84;5137989;55;1136754;-66
2022/11/17 06:23:08;;;;;;;14.23;9.27;;;;;;;2.39;100.00;99974.84;5129781;55;1136978;-72
2022/11/17 06:28:17;;;;;;;12.97;9.07;;;;;;;2.41;100.00;99979.98;5137567;55;1136891;-69
2022/11/17 06:33:24;;;;;;;10.90;7.33;;;;;;;2.41;100.00;99987.81;5112818;55;1136736;-68
2022/11/17 06:38:32;;;;;;;15.03;9.83;;;;;;;2.42;100.00;99982.52;5143586;55;1136969;-69
2022/11/17 06:43:38;;;;;;;11.40;8.37;;;;;;;2.42;100.00;99990.80;5144461;54;1136679;-69
2022/11/17 06:48:43;;;;;;;11.60;8.47;;;;;;;2.43;100.00;99989.88;5144218;54;1136969;-68
2022/11/17 06:53:49;;;;;;;9.57;8.10;;;;;;;2.43;100.00;99988.11;5144569;55;1136741;-71
2022/11/17 06:58:56;;;;;;;8.90;7.67;;;;;;;2.43;100.00;99988.11;5144485;54;1136799;-69
2022/11/17 07:04:01;;;;;;;14.23;8.93;;;;;;;2.44;100.00;99991.08;5144608;54;1134600;-68
2022/11/17 07:09:07;;;;;;;9.97;7.70;;;;;;;2.47;100.00;99988.77;5146730;55;1136967;-70
2022/11/17 07:14:13;;;;;;;17.73;9.13;;;;;;;2.44;100.00;99991.57;5045958;55;1134627;-70
2022/11/17 07:19:18;;;;;;;17.20;9.83;;;;;;;2.45;100.00;99990.16;5100724;55;1136836;-67
2022/11/17 07:24:24;;;;;;;17.63;10.73;;;;;;;2.48;100.00;99988.70;5068876;55;1136788;-70
2022/11/17 07:29:30;;;;;;;14.30;9.97;;;;;;;2.42;100.00;99989.50;5115169;55;1138857;-69
2022/11/17 07:34:35;;;;;;;15.07;8.53;;;;;;;2.42;100.00;99987.73;5136942;55;1136666;-68
2022/11/17 07:39:41;;;;;;;14.03;8.37;;;;;;;2.42;100.00;99977.30;5069110;56;1136869;-71
2022/11/17 07:44:47;;;;;;;19.13;8.53;;;;;;;2.41;100.00;99989.11;5085044;55;1136862;-66
2022/11/17 07:49:53;;;;;;;11.93;8.58;;;;;;;2.43;100.00;99989.42;5053857;56;1137033;-69
2022/11/17 07:55:00;;;;;;;15.20;7.63;;;;;;;2.42;100.00;99985.58;5075684;56;1136797;-70
2022/11/17 08:00:07;;;;;;;7.93;6.80;;;;;;;2.35;100.00;99994.64;5115198;55;1242488;-66
2022/11/17 08:05:16;;;;;;;8.80;7.07;;;;;;;2.35;100.00;99988.12;5144591;55;1134940;-69
2022/11/17 08:10:22;;;;;;;10.60;7.57;;;;;;;2.38;100.00;99989.27;5078307;56;1134750;-67
2022/11/17 08:15:29;;;;;;;10.33;6.97;;;;;;;2.39;100.00;99984.44;5119449;54;1136778;-71
2022/11/17 08:20:34;;;;;;;13.93;6.30;;;;;;;2.41;100.00;99976.91;5155924;55;1136750;-67
2022/11/17 08:25:40;;;;;;;10.27;6.07;;;;;;;2.36;100.00;99976.30;5155501;55;1136701;-68
2022/11/17 08:30:46;;;;;;;10.17;6.87;;;;;;;2.37;100.00;99979.75;5187202;55;1136841;-69
2022/11/17 08:35:51;;;;;;;11.67;6.10;;;;;;;2.34;100.00;99975.99;5179601;55;1136684;-67
2022/11/17 08:41:04;;;;;;;7.70;5.13;;;;;;;2.32;100.00;99978.67;5081373;55;1140531;-69
2022/11/17 08:46:12;;;;;;;7.43;6.67;;;;;;;2.35;100.00;99975.91;5142937;56;1134571;-70
2022/11/17 08:51:18;;;;;;;7.33;5.60;;;;;;;2.38;100.00;99974.91;5146507;56;1134732;-68
2022/11/17 08:56:24;;;;;;;9.27;6.10;;;;;;;2.39;100.00;99978.75;5140502;55;1134742;-67
2022/11/17 09:01:29;;;;;;;7.13;5.73;;;;;;;2.40;100.00;99983.52;5202103;54;1134644;-70
2022/11/17 09:06:36;;;;;;;6.70;5.30;;;;;;;2.38;100.00;99991.41;5210089;55;1134533;-68
2022/11/17 09:11:42;;;;;;;7.67;5.43;;;;;;;2.39;100.00;99989.19;5166776;55;1134619;-70
2022/11/17 09:16:49;;;;;;;7.63;4.90;;;;;;;2.40;100.00;99983.52;5148659;55;1134685;-70
2022/11/17 09:21:56;;;;;;;5.47;4.83;;;;;;;2.47;100.00;99984.86;5072263;56;1134770;-71
2022/11/17 09:27:02;;;;;;;6.80;5.37;;;;;;;2.47;100.00;99984.39;5068184;56;1134759;-69
2022/11/17 09:32:08;;;;;;;5.63;4.43;;;;;;;2.43;100.00;99985.97;5027738;55;1134624;-70
2022/11/17 09:37:14;;;;;;;8.33;4.70;;;;;;;2.40;100.00;99980.44;5102132;55;1134730;-68
2022/11/17 09:42:21;;;;;;;9.20;4.23;;;;;;;2.41;100.00;99979.98;5080970;54;1134942;-67
2022/11/17 09:47:52;;;;;;;6.30;5.03;;;;;;;2.39;100.00;99981.82;5071458;55;1135230;-65
2022/11/17 09:53:23;;;;;;;4.37;3.97;;;;;;;2.41;100.00;99975.61;5091676;55;1134615;-68
2022/11/17 09:58:55;;;;;;;5.27;4.13;;;;;;;2.40;100.00;99983.52;5087449;56;1134643;-67
2022/11/17 10:04:01;;;;;;;4.62;3.75;;;;;;;2.38;100.00;99978.37;5070963;56;1134876;-67
2022/11/17 10:09:20;;;;;;;5.45;4.53;;;;;;;2.40;100.00;99970.47;5070872;56;1134770;-68
2022/11/17 10:14:29;;;;;;;8.80;5.73;;;;;;;2.29;100.00;99952.73;5058220;56;1134640;-67
2022/11/17 10:19:38;;;;;;;4.53;4.13;;;;;;;2.41;100.00;99979.98;5066816;56;1134656;-68
2022/11/17 10:24:49;;;;;;;5.37;3.80;;;;;;;2.40;100.00;99968.70;5106545;55;1134802;-70
2022/11/17 10:30:14;;;;;;;4.20;3.80;;;;;;;2.44;100.00;99971.50;5104796;55;1134648;-70
2022/11/17 10:35:32;;;;;;;4.08;3.17;;;;;;;2.44;100.00;99975.41;5140677;55;1135156;-67
2022/11/17 10:40:45;;;;;;;8.53;4.50;;;;;;;2.47;100.00;99975.27;5118789;54;1134616;-68
2022/11/17 10:46:07;;;;;;;4.58;3.92;;;;;;;2.48;100.00;99982.62;5196084;55;1134946;-81
2022/11/17 10:51:25;;;;;;;4.62;4.12;;;;;;;2.50;100.00;99979.48;5078107;56;1135021;-81
2022/11/17 10:56:35;;;;;;;6.53;3.17;;;;;;;2.51;100.00;99975.95;5085298;55;1134480;-83
2022/11/17 11:01:48;;;;;;;3.47;3.20;;;;;;;2.50;100.00;99961.21;5057621;53;1134672;-81
2022/11/17 11:07:14;;;;;;;;;;;;;;;2.48;100.00;99955.23;5109587;56;1134741;-81
2022/11/17 11:12:36;;;;;;;3.50;3.20;;;;;;;2.57;100.00;99963.05;5126740;55;971996;-81
2022/11/17 11:17:45;;;;;;;4.37;3.77;;;;;;;2.62;100.00;99958.40;5069547;56;1132692;-81
2022/11/17 11:23:16;;;;;;;8.13;3.90;;;;;;;2.65;100.00;99961.69;5064189;56;1134662;-81
2022/11/17 11:29:09;;;;;;;6.50;4.27;;;;;;;2.64;100.00;99952.64;5054991;55;1134690;-81
2022/11/17 11:34:52;;;;;;;4.93;4.50;;;;;;;2.59;100.00;99952.06;5096136;56;1134795;-81
2022/11/17 11:40:23;;;;;;;7.40;4.70;;;;;;;2.60;100.00;99951.95;5180000;54;1135052;-80
2022/11/17 11:46:03;;;;;;;25.53;12.30;;;;;;;2.62;100.00;99953.17;5123850;55;1134708;-81
2022/11/17 11:51:22;;;;;;;75.67;28.47;;;;;;;2.65;100.00;99959.08;5109769;55;1138863;-81
2022/11/17 11:56:40;;;;;;;30.25;13.00;;;;;;;2.64;100.00;99943.04;5072716;56;1138887;-82
2022/11/17 12:02:02;;;;;;;86.83;60.37;;;;;;;2.69;100.00;99950.63;5016734;57;1138951;-82
2022/11/17 12:07:19;;;;;;;34.15;26.17;;;;;;;2.70;100.00;99947.94;5066952;56;1138928;-81
2022/11/17 12:12:32;;;;;;;6.03;5.23;;;;;;;2.64;100.00;99948.72;5140520;55;1138836;-81
2022/11/17 12:17:39;;;;;;;;;;;;;;;2.59;100.00;99940.31;5140361;54;1134505;-81
2022/11/17 12:23:01;;;;;;;4.95;3.87;;;;;;;2.54;100.00;99942.32;5121759;56;971839;-81
2022/11/17 12:28:39;;;;;;;12.40;6.03;;;;;;;2.52;100.00;99943.70;5096798;56;1132769;-81
2022/11/17 12:34:07;;;;;;;6.60;4.23;;;;;;;2.52;100.00;99941.09;5216096;55;1137029;-80
2022/11/17 12:39:27;;;;;;;7.40;5.23;;;;;;;2.52;100.00;99942.86;5110265;55;1144591;-80
2022/11/17 12:44:49;;;;;;;12.93;6.22;;;;;;;2.50;100.00;99926.44;5003203;56;1134848;-81
2022/11/17 12:50:11;;;;;;;8.83;5.67;;;;;;;2.52;100.00;99930.66;5058539;55;1136868;-82
2022/11/17 12:55:52;;;;;;;14.83;8.20;;;;;;;2.55;100.00;99933.56;5055490;55;1134777;-80
2022/11/17 13:01:25;;;;;;;5.50;4.53;;;;;;;2.58;100.00;99934.71;5122423;56;1136878;-81
2022/11/17 13:06:30;;;;;;;8.73;5.60;;;;;;;2.56;100.00;99937.41;5037496;56;1134737;-81
2022/11/17 13:11:36;;;;;;;13.20;5.60;;;;;;;2.54;100.00;99936.64;5118109;56;1134774;-81
2022/11/17 13:16:50;;;;;;;7.27;5.57;;;;;;;2.52;100.00;99939.79;5139599;56;1136913;-81
2022/11/17 13:22:03;;;;;;;10.40;6.90;;;;;;;2.53;100.00;99926.28;5135822;55;1134649;-81
2022/11/17 13:27:30;;;;;;;8.33;5.90;;;;;;;2.46;100.00;99934.42;5102003;56;1136780;-80
2022/11/17 13:32:39;;;;;;;5.77;4.43;;;;;;;2.42;100.00;99926.86;5164512;56;1134743;-77
2022/11/17 13:37:45;;;;;;;14.95;9.45;;;;;;;2.41;100.00;99921.27;5104219;56;1134871;-69
2022/11/17 13:42:51;;;;;;;16.60;13.63;;;;;;;2.35;100.00;99921.58;5077019;55;1136721;-69
2022/11/17 13:47:58;;;;;;;13.18;7.12;;;;;;;2.27;100.00;99918.09;5090517;55;1138855;-68
2022/11/17 13:53:14;;;;;;;11.10;6.17;;;;;;;2.20;100.00;99914.10;5096795;56;1136483;-69
2022/11/17 13:58:39;;;;;;;11.63;6.50;;;;;;;2.23;100.00;99919.63;5153141;55;1159580;-66
2022/11/17 14:03:45;;;;;;;13.70;6.73;;;;;;;2.15;100.00;99921.78;5102131;56;1165351;-66
2022/11/17 14:09:05;;;;;;;23.20;10.03;;;;;;;2.14;100.00;99925.34;5106225;56;1136809;-65
2022/11/17 14:14:13;;;;;;;15.77;8.13;;;;;;;2.11;100.00;99922.42;5049911;55;1138820;-70
2022/11/17 14:19:26;;;;;;;9.55;6.35;;;;;;;2.08;100.00;99916.91;5046861;56;1136930;-67
2022/11/17 14:24:32;;;;;;;8.17;4.10;;;;;;;2.10;100.00;99921.58;5108485;56;1134532;-69
2022/11/17 14:29:38;;;;;;;9.17;5.70;;;;;;;2.16;100.00;99916.95;5120708;56;1134998;-69
2022/11/17 14:34:44;;;;;;;15.03;6.30;;;;;;;2.11;100.00;99919.36;5069264;56;1134622;-66
2022/11/17 14:39:50;;;;;;;15.30;8.67;;;;;;;2.05;100.00;99922.27;5108987;56;1136880;-68
2022/11/17 14:44:56;;;;;;;10.93;5.05;;;;;;;2.02;100.00;99911.16;5196309;55;1136731;-70
2022/11/17 14:50:02;;;;;;;7.50;5.77;;;;;;;1.94;100.00;99917.23;5196232;56;1136901;-66
2022/11/17 14:55:10;;;;;;;88.27;45.70;;;;;;;1.90;100.00;99910.49;5145793;56;1134828;-66
2022/11/17 15:00:16;;;;;;;44.10;25.87;;;;;;;1.88;100.00;99919.69;5149260;55;1146057;-68
2022/11/17 15:05:22;;;;;;;14.87;8.65;;;;;;;1.85;100.00;99909.87;5147546;55;1138884;-68
2022/11/17 15:10:28;;;;;;;7.50;5.43;;;;;;;1.89;100.00;99912.71;5101741;55;1136929;-67
2022/11/17 15:15:34;;;;;;;10.40;6.07;;;;;;;1.88;100.00;99900.59;5143816;55;1134665;-69
2022/11/17 15:20:39;;;;;;;7.20;4.40;;;;;;;1.83;100.00;99906.53;5085490;54;1136768;-67
2022/11/17 15:25:45;;;;;;;91.07;52.90;;;;;;;1.84;100.00;99887.33;5136569;56;1134638;-71
2022/11/17 15:30:51;;;;;;;129.70;69.90;;;;;;;1.83;100.00;99889.58;5133266;55;1139002;-66
2022/11/17 15:36:04;;;;;;;17.60;8.40;;;;;;;1.85;100.00;99891.63;5048108;56;1141026;-67
2022/11/17 15:41:13;;;;;;;539.37;247.20;;;;;;;1.80;100.00;99891.89;5112818;55;1136894;-65
2022/11/17 15:46:19;;;;;;;12.33;8.00;;;;;;;1.79;100.00;99888.89;5016915;56;1143129;-68
2022/11/17 15:51:27;;;;;;;6.93;4.70;;;;;;;1.79;100.00;99885.44;5063964;56;1136847;-67
2022/11/17 15:56:37;;;;;;;5.30;4.80;;;;;;;1.76;100.00;99891.66;5126831;56;1134752;-67
2022/11/17 16:01:43;;;;;;;18.23;8.30;;;;;;;1.71;100.00;99901.00;5092544;56;1134735;-69
2022/11/17 16:06:49;;;;;;;20.07;10.03;;;;;;;1.67;100.00;99900.80;5110996;56;1136772;-69
2022/11/17 16:11:54;;;;;;;19.23;9.30;;;;;;;1.66;100.00;99890.45;5110793;56;1138597;-68
2022/11/17 16:17:00;;;;;;;16.57;9.30;;;;;;;1.67;100.00;99894.74;5111024;54;1136631;-71
2022/11/17 16:22:06;;;;;;;14.33;9.87;;;;;;;1.65;100.00;99892.21;5066415;55;1136737;-69
2022/11/17 16:27:12;;;;;;;14.65;10.28;;;;;;;1.65;100.00;99897.88;5110455;55;1136779;-68
2022/11/17 16:32:18;;;;;;;11.43;7.37;;;;;;;1.61;100.00;99894.58;5158548;55;1138813;-65
2022/11/17 16:37:23;;;;;;;18.17;7.25;;;;;;;1.58;100.00;99896.49;5112623;56;1136714;-79
2022/11/17 16:42:29;;;;;;;8.85;6.10;;;;;;;1.55;100.00;99901.86;5161605;55;1136711;-80
2022/11/17 16:47:35;;;;;;;14.37;8.07;;;;;;;1.49;100.00;99895.20;5137328;55;1134650;-81
2022/11/17 16:52:41;;;;;;;680.23;333.67;;;;;;;1.45;100.00;99904.55;5102170;56;1136678;-68
2022/11/17 16:57:46;;;;;;;35.83;28.67;;;;;;;1.39;100.00;99901.78;5130376;56;1142807;-65
2022/11/17 17:02:52;;;;;;;11.63;7.50;;;;;;;1.36;100.00;99904.56;5151043;55;1138699;-69
2022/11/17 17:07:58;;;;;;;12.13;7.50;;;;;;;1.28;100.00;99892.36;5076072;56;1136743;-69
2022/11/17 17:13:04;;;;;;;8.93;6.97;;;;;;;1.23;100.00;99888.67;5064389;57;1136794;-69
2022/11/17 17:18:10;;;;;;;16.90;9.43;;;;;;;1.26;100.00;99888.98;5072842;56;1134873;-70
2022/11/17 17:23:15;;;;;;;13.80;7.07;;;;;;;1.29;100.00;99896.20;5069400;55;1136757;-68
2022/11/17 17:28:22;;;;;;;17.07;8.07;;;;;;;1.33;100.00;99898.20;5061104;56;1137133;-67
2022/11/17 17:33:33;;;;;;;19.50;9.10;;;;;;;1.33;100.00;99895.59;5105438;55;1136937;-65
2022/11/17 17:38:40;;;;;;;18.37;8.80;;;;;;;1.34;100.00;99900.73;5086312;55;1136644;-67
2022/11/17 17:43:47;;;;;;;16.57;8.07;;;;;;;1.35;100.00;99903.72;5045719;55;1136841;-67
2022/11/17 17:48:53;;;;;;;30.30;11.33;;;;;;;1.29;100.00;99901.86;5099174;55;1136897;-67
2022/11/17 17:54:00;;;;;;;29.50;12.57;;;;;;;1.25;100.00;99902.47;5156178;55;1138872;-68
2022/11/17 17:59:06;;;;;;;23.73;11.40;;;;;;;1.21;100.00;99898.34;5156244;55;1138780;-69
2022/11/17 18:04:12;;;;;;;17.80;9.48;;;;;;;1.18;100.00;99906.30;5156343;54;1138899;-66
2022/11/17 18:09:18;;;;;;;12.60;7.50;;;;;;;1.15;100.00;99911.66;5156273;55;1136667;-69
2022/11/17 18:14:23;;;;;;;20.48;11.22;;;;;;;1.10;100.00;99908.42;5129947;55;1136960;-67
2022/11/17 18:19:30;;;;;;;19.73;10.32;;;;;;;1.08;100.00;99917.22;5010134;56;1139092;-66
2022/11/17 18:24:36;;;;;;;20.20;9.80;;;;;;;1.07;100.00;99911.66;5048249;55;1139027;-72
2022/11/17 18:29:42;;;;;;;18.73;10.80;;;;;;;1.04;100.00;99903.53;5074880;55;1136709;-67
2022/11/17 18:34:48;;;;;;;15.77;9.47;;;;;;;1.01;100.00;99916.69;5125424;55;1138945;-83
2022/11/17 18:39:53;;;;;;;15.67;7.83;;;;;;;0.98;100.00;99915.53;5102792;55;1136729;-82
2022/11/17 18:44:59;;;;;;;32.57;16.50;;;;;;;0.96;100.00;99916.91;5047930;56;1136726;-83
2022/11/17 18:50:05;;;;;;;13.83;8.77;;;;;;;0.95;100.00;99912.61;5065036;56;1138841;-83
2022/11/17 18:55:11;;;;;;;16.50;9.67;;;;;;;0.93;100.00;99903.18;5094208;56;1136753;-83
2022/11/17 19:00:17;;;;;;;16.27;9.37;;;;;;;0.95;100.00;99908.70;5120933;54;1194730;-81
2022/11/17 19:05:23;;;;;;;46.20;19.03;;;;;;;0.94;100.00;99898.36;5161129;53;1146273;-83
2022/11/17 19:10:28;;;;;;;20.83;13.40;;;;;;;0.92;100.00;99892.38;5197183;55;1138790;-83
2022/11/17 19:15:35;;;;;;;18.70;10.87;;;;;;;0.92;100.00;99896.28;5196449;55;1138814;-83
2022/11/17 19:20:41;;;;;;;20.67;10.67;;;;;;;0.89;100.00;99899.91;5154673;55;1139068;-82
2022/11/17 19:25:46;;;;;;;16.40;9.63;;;;;;;0.87;100.00;99889.17;5144899;55;1138816;-81
2022/11/17 19:30:52;;;;;;;14.90;8.20;;;;;;;0.82;100.00;99879.43;5194543;55;1136708;-81
2022/11/17 19:35:59;;;;;;;17.97;9.23;;;;;;;0.82;100.00;99882.88;5210735;54;1136940;-80
2022/11/17 19:41:09;;;;;;;15.17;9.13;;;;;;;0.79;100.00;99886.08;5186609;55;1236099;-79
2022/11/17 19:46:17;;;;;;;19.40;9.57;;;;;;;0.79;100.00;99870.46;5161923;55;1136856;-81
2022/11/17 19:51:29;;;;;;;21.60;10.18;;;;;;;0.80;100.00;99872.99;5142016;55;1136763;-81
2022/11/17 19:56:37;;;;;;;16.15;10.03;;;;;;;0.79;100.00;99868.70;5171564;54;1138770;-80
2022/11/17 20:01:42;;;;;;;19.77;11.50;;;;;;;0.79;100.00;99859.59;5179998;55;1139066;-80
2022/11/17 20:06:48;;;;;;;17.77;9.90;;;;;;;0.80;100.00;99856.08;5145859;55;1138766;-80
2022/11/17 20:11:54;;;;;;;14.43;7.97;;;;;;;0.78;100.00;99857.91;5127979;55;1136747;-80
2022/11/17 20:16:59;;;;;;;15.83;9.37;;;;;;;0.73;100.00;99851.25;5040441;56;1136771;-80
2022/11/17 20:22:06;;;;;;;15.77;10.53;;;;;;;0.74;100.00;99863.36;5035709;56;1136895;-80
2022/11/17 20:27:11;;;;;;;16.27;10.20;;;;;;;0.69;100.00;99863.56;5068555;55;1138943;-80
2022/11/17 20:32:17;;;;;;;16.93;10.23;;;;;;;0.64;100.00;99859.02;5077216;55;1139053;-81
2022/11/17 20:37:23;;;;;;;14.73;9.70;;;;;;;0.59;100.00;99855.82;5064351;55;1144620;-80
2022/11/17 20:42:28;;;;;;;22.55;12.03;;;;;;;0.58;100.00;99850.23;5058014;54;1136818;-81
2022/11/17 20:47:34;;;;;;;29.17;13.13;;;;;;;0.59;100.00;99848.02;5088373;55;1139124;-79
2022/11/17 20:52:40;;;;;;;27.57;14.20;;;;;;;0.57;100.00;99849.84;5137940;55;1139018;-80
2022/11/17 20:57:45;;;;;;;32.23;16.50;;;;;;;0.59;100.00;99851.92;5143921;56;1138913;-84
2022/11/17 21:02:51;;;;;;;32.87;16.20;;;;;;;0.61;100.00;99852.20;5144285;56;1138906;-81
2022/11/17 21:07:57;;;;;;;30.30;19.07;;;;;;;0.65;100.00;99847.70;5144200;56;1138755;-80
2022/11/17 21:13:03;;;;;;;24.13;13.93;;;;;;;0.69;100.00;99841.44;5112889;56;1138832;-80
2022/11/17 21:18:23;;;;;;;23.80;12.90;;;;;;;0.68;100.00;99837.16;5054956;56;1138846;-80
2022/11/17 21:23:29;;;;;;;20.65;12.68;;;;;;;0.68;100.00;99846.27;5075839;56;1138717;-69
2022/11/17 21:28:37;;;;;;;16.10;9.67;;;;;;;0.65;100.00;99843.34;5141505;56;1138689;-70
2022/11/17 21:33:43;;;;;;;23.60;14.00;;;;;;;0.64;100.00;99839.05;5099252;55;1136738;-68
2022/11/17 21:38:49;;;;;;;17.63;12.63;;;;;;;0.59;100.00;99835.84;5108843;55;1138771;-67
2022/11/17 21:44:00;;;;;;;27.00;15.17;;;;;;;0.46;100.00;99830.81;5067198;56;1138753;-68
2022/11/17 21:49:06;;;;;;;29.97;16.33;;;;;;;0.46;100.00;99830.81;5048346;57;1138739;-66
2022/11/17 21:54:12;;;;;;;25.13;14.30;;;;;;;0.52;100.00;99824.03;5049609;56;1138631;-69
2022/11/17 21:59:17;;;;;;;57.33;22.20;;;;;;;0.51;100.00;99813.23;5123083;56;1174711;-70
2022/11/17 22:04:23;;;;;;;39.38;19.23;;;;;;;0.46;100.00;99818.30;5054898;55;1138770;-70
2022/11/17 22:09:29;;;;;;;41.80;19.03;;;;;;;0.46;100.00;99817.80;5075524;55;1139082;-69
2022/11/17 22:14:34;;;;;;;32.17;15.00;;;;;;;0.41;100.00;99826.31;5069551;55;1139100;-67
2022/11/17 22:19:39;;;;;;;26.03;14.53;;;;;;;0.32;100.00;99813.26;5093938;56;1138756;-70
2022/11/17 22:24:47;;;;;;;51.10;19.60;;;;;;;0.21;100.00;99814.23;5062395;57;1138749;-67
2022/11/17 22:29:53;;;;;;;61.90;24.43;;;;;;;0.15;100.00;99821.48;5068237;57;1138859;-69
2022/11/17 22:35:00;;;;;;;32.83;16.97;;;;;;;0.16;100.00;99815.34;5098516;56;1138737;-82
2022/11/17 22:40:06;;;;;;;22.65;12.80;;;;;;;0.15;100.00;99809.33;5068316;55;1138903;-82
2022/11/17 22:45:12;;;;;;;20.88;12.98;;;;;;;0.14;100.00;99810.24;5079584;56;1138843;-82
2022/11/17 22:50:17;;;;;;;28.23;14.10;;;;;;;0.08;100.00;99809.66;5124019;56;1138869;-82
2022/11/17 22:55:23;;;;;;;27.47;15.10;;;;;;;-0.08;100.00;99803.87;5118998;56;1138876;-82
2022/11/17 23:00:29;;;;;;;28.17;14.73;;;;;;;-0.18;100.00;99801.77;5064919;56;1141178;-82
2022/11/17 23:05:35;;;;;;;44.77;19.52;;;;;;;-0.24;100.00;99813.72;5067882;55;1140943;-81
2022/11/17 23:10:41;;;;;;;48.30;20.33;;;;;;;-0.25;100.00;99818.53;5068202;55;1140978;-82
2022/11/17 23:15:46;;;;;;;55.20;21.73;;;;;;;-0.32;100.00;99813.23;5065252;55;1141054;-82
2022/11/17 23:20:52;;;;;;;44.23;21.82;;;;;;;-0.31;100.00;99808.42;5067982;55;1141196;-82
2022/11/17 23:26:04;;;;;;;30.88;15.98;;;;;;;-0.27;100.00;99805.60;5067664;56;1141203;-82
2022/11/17 23:31:15;;;;;;;24.13;14.00;;;;;;;-0.27;100.00;99799.11;5059215;56;1141054;-80
2022/11/17 23:36:22;;;;;;;26.37;15.57;;;;;;;-0.30;100.00;99797.94;5067749;56;1140918;-81
2022/11/17 23:41:28;;;;;;;35.53;19.17;;;;;;;-0.33;100.00;99802.45;5067601;56;1141001;-81
2022/11/17 23:46:34;;;;;;;28.35;16.60;;;;;;;-0.28;100.00;99801.77;5065649;56;1140906;-82
2022/11/17 23:51:39;;;;;;;27.90;15.07;;;;;;;-0.28;100.00;99789.63;5065561;56;1140886;-81